sensor_id;sensor_type;location;lat;lon;timestamp;pressure;altitude;pressure_sealevel;temperature;humidity
76794;BME280;65745;50.278;18.192;2023-04-30T00:00:54;99710.94;;;10.67;81.67
76794;BME280;65745;50.278;18.192;2023-04-30T00:03:33;99709.34;;;10.64;82.18
76794;BME280;65745;50.278;18.192;2023-04-30T00:06:06;99710.52;;;10.63;82.07
76794;BME280;65745;50.278;18.192;2023-04-30T00:08:38;99712.05;;;10.62;82.27
76794;BME280;65745;50.278;18.192;2023-04-30T00:11:10;99714.14;;;10.63;82.19
76794;BME280;65745;50.278;18.192;2023-04-30T00:13:42;99714.13;;;10.62;82.16
76794;BME280;65745;50.278;18.192;2023-04-30T00:16:14;99713.60;;;10.62;82.52
76794;BME280;65745;50.278;18.192;2023-04-30T00:18:46;99711.00;;;10.60;82.42
76794;BME280;65745;50.278;18.192;2023-04-30T00:21:19;99709.47;;;10.61;82.73
76794;BME280;65745;50.278;18.192;2023-04-30T00:23:51;99711.19;;;10.62;82.71
76794;BME280;65745;50.278;18.192;2023-04-30T00:26:22;99713.41;;;10.60;82.82
76794;BME280;65745;50.278;18.192;2023-04-30T00:28:55;99714.19;;;10.56;82.52
76794;BME280;65745;50.278;18.192;2023-04-30T00:31:27;99717.22;;;10.52;82.45
76794;BME280;65745;50.278;18.192;2023-04-30T00:33:59;99715.14;;;10.50;82.09
76794;BME280;65745;50.278;18.192;2023-04-30T00:36:31;99720.65;;;10.51;82.34
76794;BME280;65745;50.278;18.192;2023-04-30T00:39:04;99721.50;;;10.50;82.63
76794;BME280;65745;50.278;18.192;2023-04-30T00:41:36;99726.61;;;10.47;82.65
76794;BME280;65745;50.278;18.192;2023-04-30T00:44:09;99726.97;;;10.48;82.80
76794;BME280;65745;50.278;18.192;2023-04-30T00:46:41;99731.42;;;10.47;83.05
76794;BME280;65745;50.278;18.192;2023-04-30T00:49:13;99731.95;;;10.48;82.75
76794;BME280;65745;50.278;18.192;2023-04-30T00:51:45;99731.31;;;10.50;82.83
76794;BME280;65745;50.278;18.192;2023-04-30T00:54:20;99731.14;;;10.50;83.13
76794;BME280;65745;50.278;18.192;2023-04-30T00:56:53;99732.70;;;10.51;82.81
76794;BME280;65745;50.278;18.192;2023-04-30T00:59:25;99732.65;;;10.48;82.83
76794;BME280;65745;50.278;18.192;2023-04-30T01:01:59;99735.34;;;10.44;83.09
76794;BME280;65745;50.278;18.192;2023-04-30T01:04:31;99738.20;;;10.40;83.56
76794;BME280;65745;50.278;18.192;2023-04-30T01:07:04;99738.13;;;10.36;83.60
76794;BME280;65745;50.278;18.192;2023-04-30T01:09:36;99739.27;;;10.33;83.27
76794;BME280;65745;50.278;18.192;2023-04-30T01:12:14;99746.23;;;10.20;83.84
76794;BME280;65745;50.278;18.192;2023-04-30T01:14:56;99743.16;;;10.13;83.74
76794;BME280;65745;50.278;18.192;2023-04-30T01:17:36;99750.37;;;10.03;83.88
76794;BME280;65745;50.278;18.192;2023-04-30T01:20:10;99752.44;;;9.94;83.82
76794;BME280;65745;50.278;18.192;2023-04-30T01:22:49;99757.09;;;9.87;83.74
76794;BME280;65745;50.278;18.192;2023-04-30T01:25:41;99756.36;;;9.84;83.42
76794;BME280;65745;50.278;18.192;2023-04-30T01:28:17;99760.51;;;9.77;83.55
76794;BME280;65745;50.278;18.192;2023-04-30T01:30:50;99763.23;;;9.75;83.38
76794;BME280;65745;50.278;18.192;2023-04-30T01:33:23;99766.73;;;9.70;83.19
76794;BME280;65745;50.278;18.192;2023-04-30T01:36:17;99772.73;;;9.69;83.05
76794;BME280;65745;50.278;18.192;2023-04-30T01:39:05;99776.81;;;9.67;83.04
76794;BME280;65745;50.278;18.192;2023-04-30T01:41:52;99781.38;;;9.63;82.71
76794;BME280;65745;50.278;18.192;2023-04-30T01:44:39;99788.66;;;9.59;82.88
76794;BME280;65745;50.278;18.192;2023-04-30T01:47:31;99792.24;;;9.57;82.70
76794;BME280;65745;50.278;18.192;2023-04-30T01:50:12;99796.83;;;9.55;82.56
76794;BME280;65745;50.278;18.192;2023-04-30T01:52:51;99797.73;;;9.49;83.26
76794;BME280;65745;50.278;18.192;2023-04-30T01:55:29;99799.15;;;9.51;82.66
76794;BME280;65745;50.278;18.192;2023-04-30T01:58:08;99800.20;;;9.52;82.68
76794;BME280;65745;50.278;18.192;2023-04-30T02:00:41;99805.90;;;9.53;82.28
76794;BME280;65745;50.278;18.192;2023-04-30T02:03:13;99811.02;;;9.51;82.14
76794;BME280;65745;50.278;18.192;2023-04-30T02:05:45;99815.11;;;9.50;81.89
76794;BME280;65745;50.278;18.192;2023-04-30T02:08:17;99817.40;;;9.51;81.96
76794;BME280;65745;50.278;18.192;2023-04-30T02:10:50;99818.10;;;9.52;81.78
76794;BME280;65745;50.278;18.192;2023-04-30T02:13:22;99824.36;;;9.48;81.69
76794;BME280;65745;50.278;18.192;2023-04-30T02:15:54;99821.29;;;9.49;81.51
76794;BME280;65745;50.278;18.192;2023-04-30T02:18:26;99825.36;;;9.47;81.39
76794;BME280;65745;50.278;18.192;2023-04-30T02:20:58;99824.91;;;9.42;81.19
76794;BME280;65745;50.278;18.192;2023-04-30T02:23:30;99831.00;;;9.38;81.23
76794;BME280;65745;50.278;18.192;2023-04-30T02:26:02;99834.77;;;9.38;81.29
76794;BME280;65745;50.278;18.192;2023-04-30T02:28:34;99835.98;;;9.38;81.25
76794;BME280;65745;50.278;18.192;2023-04-30T02:31:06;99836.00;;;9.38;81.02
76794;BME280;65745;50.278;18.192;2023-04-30T02:33:40;99840.11;;;9.38;80.96
76794;BME280;65745;50.278;18.192;2023-04-30T02:36:12;99839.05;;;9.37;80.80
76794;BME280;65745;50.278;18.192;2023-04-30T02:38:44;99843.81;;;9.34;80.61
76794;BME280;65745;50.278;18.192;2023-04-30T02:41:16;99841.20;;;9.33;80.64
76794;BME280;65745;50.278;18.192;2023-04-30T02:43:48;99844.98;;;9.32;80.59
76794;BME280;65745;50.278;18.192;2023-04-30T02:46:21;99845.81;;;9.32;80.46
76794;BME280;65745;50.278;18.192;2023-04-30T02:48:53;99846.63;;;9.30;80.47
76794;BME280;65745;50.278;18.192;2023-04-30T02:51:25;99849.54;;;9.30;80.50
76794;BME280;65745;50.278;18.192;2023-04-30T02:53:57;99851.36;;;9.27;80.06
76794;BME280;65745;50.278;18.192;2023-04-30T02:56:29;99855.73;;;9.23;80.28
76794;BME280;65745;50.278;18.192;2023-04-30T02:59:01;99855.86;;;9.21;80.01
76794;BME280;65745;50.278;18.192;2023-04-30T03:01:33;99860.61;;;9.19;79.75
76794;BME280;65745;50.278;18.192;2023-04-30T03:04:05;99858.77;;;9.14;79.78
76794;BME280;65745;50.278;18.192;2023-04-30T03:06:37;99863.16;;;9.11;79.64
76794;BME280;65745;50.278;18.192;2023-04-30T03:09:09;99864.50;;;9.09;79.74
76794;BME280;65745;50.278;18.192;2023-04-30T03:11:43;99867.56;;;9.08;79.83
76794;BME280;65745;50.278;18.192;2023-04-30T03:14:15;99872.56;;;9.09;79.83
76794;BME280;65745;50.278;18.192;2023-04-30T03:16:47;99875.30;;;9.08;79.99
76794;BME280;65745;50.278;18.192;2023-04-30T03:19:19;99879.62;;;9.09;79.70
76794;BME280;65745;50.278;18.192;2023-04-30T03:21:55;99884.45;;;9.10;79.51
76794;BME280;65745;50.278;18.192;2023-04-30T03:24:27;99886.83;;;9.09;79.47
76794;BME280;65745;50.278;18.192;2023-04-30T03:26:59;99888.79;;;9.05;79.01
76794;BME280;65745;50.278;18.192;2023-04-30T03:29:31;99891.63;;;9.02;78.96
76794;BME280;65745;50.278;18.192;2023-04-30T03:32:04;99893.69;;;9.02;78.89
76794;BME280;65745;50.278;18.192;2023-04-30T03:34:36;99892.30;;;9.01;78.94
76794;BME280;65745;50.278;18.192;2023-04-30T03:37:08;99896.26;;;9.01;79.09
76794;BME280;65745;50.278;18.192;2023-04-30T03:39:40;99896.24;;;9.01;78.94
76794;BME280;65745;50.278;18.192;2023-04-30T03:42:12;99900.86;;;9.00;79.00
76794;BME280;65745;50.278;18.192;2023-04-30T03:44:45;99898.09;;;8.99;78.79
76794;BME280;65745;50.278;18.192;2023-04-30T03:47:17;99899.27;;;8.99;78.92
76794;BME280;65745;50.278;18.192;2023-04-30T03:49:49;99903.11;;;9.00;79.00
76794;BME280;65745;50.278;18.192;2023-04-30T03:52:25;99904.18;;;9.03;79.05
76794;BME280;65745;50.278;18.192;2023-04-30T03:54:57;99909.22;;;9.05;78.77
76794;BME280;65745;50.278;18.192;2023-04-30T03:57:29;99911.69;;;9.07;78.58
76794;BME280;65745;50.278;18.192;2023-04-30T04:00:02;99910.02;;;9.02;78.56
76794;BME280;65745;50.278;18.192;2023-04-30T04:02:42;99920.09;;;8.99;78.52
76794;BME280;65745;50.278;18.192;2023-04-30T04:05:14;99920.92;;;8.98;78.44
76794;BME280;65745;50.278;18.192;2023-04-30T04:07:47;99926.90;;;8.98;78.52
76794;BME280;65745;50.278;18.192;2023-04-30T04:10:19;99928.27;;;8.98;78.33
76794;BME280;65745;50.278;18.192;2023-04-30T04:12:51;99936.20;;;8.98;78.48
76794;BME280;65745;50.278;18.192;2023-04-30T04:15:23;99939.34;;;9.00;78.56
76794;BME280;65745;50.278;18.192;2023-04-30T04:17:56;99941.79;;;9.02;78.72
76794;BME280;65745;50.278;18.192;2023-04-30T04:20:29;99944.23;;;9.03;78.64
76794;BME280;65745;50.278;18.192;2023-04-30T04:23:01;99947.30;;;9.02;78.48
76794;BME280;65745;50.278;18.192;2023-04-30T04:25:33;99948.25;;;9.05;78.63
76794;BME280;65745;50.278;18.192;2023-04-30T04:28:06;99950.52;;;9.06;78.60
76794;BME280;65745;50.278;18.192;2023-04-30T04:30:38;99953.81;;;9.08;78.53
76794;BME280;65745;50.278;18.192;2023-04-30T04:33:10;99960.02;;;9.09;78.51
76794;BME280;65745;50.278;18.192;2023-04-30T04:35:42;99963.38;;;9.13;78.56
76794;BME280;65745;50.278;18.192;2023-04-30T04:38:14;99964.83;;;9.15;78.31
76794;BME280;65745;50.278;18.192;2023-04-30T04:40:52;99967.08;;;9.15;78.28
76794;BME280;65745;50.278;18.192;2023-04-30T04:43:24;99972.13;;;9.18;78.41
76794;BME280;65745;50.278;18.192;2023-04-30T04:45:57;99975.67;;;9.22;78.02
76794;BME280;65745;50.278;18.192;2023-04-30T04:48:29;99980.02;;;9.24;78.00
76794;BME280;65745;50.278;18.192;2023-04-30T04:51:01;99981.33;;;9.28;78.03
76794;BME280;65745;50.278;18.192;2023-04-30T04:53:33;99979.53;;;9.31;77.93
76794;BME280;65745;50.278;18.192;2023-04-30T04:56:07;99981.45;;;9.32;77.79
76794;BME280;65745;50.278;18.192;2023-04-30T04:58:40;99985.10;;;9.34;77.82
76794;BME280;65745;50.278;18.192;2023-04-30T05:01:12;99986.24;;;9.38;77.88
76794;BME280;65745;50.278;18.192;2023-04-30T05:03:45;99989.63;;;9.43;77.65
76794;BME280;65745;50.278;18.192;2023-04-30T05:06:17;99990.34;;;9.44;77.56
76794;BME280;65745;50.278;18.192;2023-04-30T05:08:49;99995.34;;;9.45;77.29
76794;BME280;65745;50.278;18.192;2023-04-30T05:11:21;100002.14;;;9.49;77.17
76794;BME280;65745;50.278;18.192;2023-04-30T05:13:54;100002.77;;;9.52;77.06
76794;BME280;65745;50.278;18.192;2023-04-30T05:16:27;100008.27;;;9.53;76.76
76794;BME280;65745;50.278;18.192;2023-04-30T05:18:59;100011.16;;;9.51;76.82
76794;BME280;65745;50.278;18.192;2023-04-30T05:21:31;100016.05;;;9.47;77.08
76794;BME280;65745;50.278;18.192;2023-04-30T05:24:04;100020.84;;;9.47;76.95
76794;BME280;65745;50.278;18.192;2023-04-30T05:26:36;100020.42;;;9.44;77.17
76794;BME280;65745;50.278;18.192;2023-04-30T05:29:08;100021.18;;;9.40;77.14
76794;BME280;65745;50.278;18.192;2023-04-30T05:31:41;100027.02;;;9.40;77.21
76794;BME280;65745;50.278;18.192;2023-04-30T05:34:13;100027.38;;;9.47;76.97
76794;BME280;65745;50.278;18.192;2023-04-30T05:36:45;100029.73;;;9.57;77.02
76794;BME280;65745;50.278;18.192;2023-04-30T05:39:17;100030.94;;;9.71;76.99
76794;BME280;65745;50.278;18.192;2023-04-30T05:41:49;100034.27;;;9.87;76.68
76794;BME280;65745;50.278;18.192;2023-04-30T05:44:23;100033.76;;;10.02;76.82
76794;BME280;65745;50.278;18.192;2023-04-30T05:46:55;100036.03;;;10.24;76.64
76794;BME280;65745;50.278;18.192;2023-04-30T05:49:27;100037.65;;;10.41;76.16
76794;BME280;65745;50.278;18.192;2023-04-30T05:51:59;100037.82;;;10.57;75.96
76794;BME280;65745;50.278;18.192;2023-04-30T05:54:33;100044.33;;;10.70;74.61
76794;BME280;65745;50.278;18.192;2023-04-30T05:57:05;100045.16;;;10.78;74.70
76794;BME280;65745;50.278;18.192;2023-04-30T05:59:37;100050.05;;;10.88;73.86
76794;BME280;65745;50.278;18.192;2023-04-30T06:02:09;100051.91;;;10.95;73.29
76794;BME280;65745;50.278;18.192;2023-04-30T06:04:41;100048.48;;;11.05;73.64
76794;BME280;65745;50.278;18.192;2023-04-30T06:07:14;100053.56;;;11.17;73.60
76794;BME280;65745;50.278;18.192;2023-04-30T06:09:46;100055.22;;;11.22;73.47
76794;BME280;65745;50.278;18.192;2023-04-30T06:12:18;100054.48;;;11.29;73.43
76794;BME280;65745;50.278;18.192;2023-04-30T06:14:50;100054.80;;;11.36;73.29
76794;BME280;65745;50.278;18.192;2023-04-30T06:17:22;100057.16;;;11.33;72.38
76794;BME280;65745;50.278;18.192;2023-04-30T06:19:54;100062.92;;;11.28;72.08
76794;BME280;65745;50.278;18.192;2023-04-30T06:22:28;100057.80;;;11.30;71.83
76794;BME280;65745;50.278;18.192;2023-04-30T06:25:00;100059.38;;;11.32;71.73
76794;BME280;65745;50.278;18.192;2023-04-30T06:27:33;100063.03;;;11.42;71.98
76794;BME280;65745;50.278;18.192;2023-04-30T06:30:07;100065.73;;;11.58;71.49
76794;BME280;65745;50.278;18.192;2023-04-30T06:32:39;100069.25;;;11.79;71.74
76794;BME280;65745;50.278;18.192;2023-04-30T06:35:12;100070.48;;;11.89;70.31
76794;BME280;65745;50.278;18.192;2023-04-30T06:37:44;100075.40;;;11.95;69.55
76794;BME280;65745;50.278;18.192;2023-04-30T06:40:16;100075.17;;;11.92;68.55
76794;BME280;65745;50.278;18.192;2023-04-30T06:42:48;100074.96;;;12.00;69.24
76794;BME280;65745;50.278;18.192;2023-04-30T06:45:20;100074.59;;;12.09;68.37
76794;BME280;65745;50.278;18.192;2023-04-30T06:47:53;100075.80;;;12.19;68.81
76794;BME280;65745;50.278;18.192;2023-04-30T06:50:25;100075.48;;;12.30;68.18
76794;BME280;65745;50.278;18.192;2023-04-30T06:52:57;100078.80;;;12.45;68.26
76794;BME280;65745;50.278;18.192;2023-04-30T06:55:29;100081.30;;;12.61;68.25
76794;BME280;65745;50.278;18.192;2023-04-30T06:58:01;100082.01;;;12.75;67.61
76794;BME280;65745;50.278;18.192;2023-04-30T07:00:35;100081.32;;;12.88;67.69
76794;BME280;65745;50.278;18.192;2023-04-30T07:03:07;100079.92;;;13.00;66.74
76794;BME280;65745;50.278;18.192;2023-04-30T07:05:39;100080.95;;;13.11;66.33
76794;BME280;65745;50.278;18.192;2023-04-30T07:08:12;100084.06;;;13.24;66.72
76794;BME280;65745;50.278;18.192;2023-04-30T07:10:44;100079.06;;;13.41;66.34
76794;BME280;65745;50.278;18.192;2023-04-30T07:13:16;100074.25;;;13.59;66.13
76794;BME280;65745;50.278;18.192;2023-04-30T07:15:48;100070.95;;;13.75;65.82
76794;BME280;65745;50.278;18.192;2023-04-30T07:18:21;100071.94;;;13.86;64.73
76794;BME280;65745;50.278;18.192;2023-04-30T07:20:53;100074.77;;;13.95;64.43
76794;BME280;65745;50.278;18.192;2023-04-30T07:23:25;100075.66;;;13.97;62.41
76794;BME280;65745;50.278;18.192;2023-04-30T07:26:00;100072.65;;;13.91;61.47
76794;BME280;65745;50.278;18.192;2023-04-30T07:28:32;100074.05;;;13.91;62.39
76794;BME280;65745;50.278;18.192;2023-04-30T07:31:04;100072.07;;;14.02;60.77
76794;BME280;65745;50.278;18.192;2023-04-30T07:33:37;100072.40;;;14.01;59.49
76794;BME280;65745;50.278;18.192;2023-04-30T07:36:09;100071.58;;;14.07;60.30
76794;BME280;65745;50.278;18.192;2023-04-30T07:38:41;100074.91;;;14.10;58.12
76794;BME280;65745;50.278;18.192;2023-04-30T07:41:13;100080.20;;;14.22;58.95
76794;BME280;65745;50.278;18.192;2023-04-30T07:43:46;100081.11;;;14.46;59.65
76794;BME280;65745;50.278;18.192;2023-04-30T07:46:18;100084.51;;;14.61;59.54
76794;BME280;65745;50.278;18.192;2023-04-30T07:48:50;100085.79;;;14.72;59.73
76794;BME280;65745;50.278;18.192;2023-04-30T07:51:23;100085.13;;;14.78;59.85
76794;BME280;65745;50.278;18.192;2023-04-30T07:53:55;100088.91;;;14.70;57.49
76794;BME280;65745;50.278;18.192;2023-04-30T07:56:27;100094.01;;;14.56;57.63
76794;BME280;65745;50.278;18.192;2023-04-30T07:59:00;100097.61;;;14.50;58.06
76794;BME280;65745;50.278;18.192;2023-04-30T08:01:32;100099.10;;;14.40;58.23
76794;BME280;65745;50.278;18.192;2023-04-30T08:04:04;100099.98;;;14.45;58.16
76794;BME280;65745;50.278;18.192;2023-04-30T08:06:37;100102.05;;;14.41;57.38
76794;BME280;65745;50.278;18.192;2023-04-30T08:09:09;100105.38;;;14.28;56.36
76794;BME280;65745;50.278;18.192;2023-04-30T08:11:41;100108.32;;;14.09;56.32
76794;BME280;65745;50.278;18.192;2023-04-30T08:14:13;100109.31;;;13.85;56.65
76794;BME280;65745;50.278;18.192;2023-04-30T08:16:46;100115.95;;;14.09;57.85
76794;BME280;65745;50.278;18.192;2023-04-30T08:19:18;100112.62;;;14.43;57.99
76794;BME280;65745;50.278;18.192;2023-04-30T08:21:50;100114.88;;;14.67;56.29
76794;BME280;65745;50.278;18.192;2023-04-30T08:24:22;100109.52;;;14.66;55.85
76794;BME280;65745;50.278;18.192;2023-04-30T08:26:54;100109.11;;;14.85;56.16
76794;BME280;65745;50.278;18.192;2023-04-30T08:29:26;100108.67;;;15.01;55.05
76794;BME280;65745;50.278;18.192;2023-04-30T08:32:03;100107.71;;;15.16;54.50
76794;BME280;65745;50.278;18.192;2023-04-30T08:34:35;100109.71;;;15.38;54.87
76794;BME280;65745;50.278;18.192;2023-04-30T08:37:07;100112.42;;;15.55;54.25
76794;BME280;65745;50.278;18.192;2023-04-30T08:39:39;100109.85;;;15.71;54.34
76794;BME280;65745;50.278;18.192;2023-04-30T08:42:14;100107.09;;;15.81;53.96
76794;BME280;65745;50.278;18.192;2023-04-30T08:44:48;100106.05;;;15.81;52.99
76794;BME280;65745;50.278;18.192;2023-04-30T08:47:21;100106.75;;;15.85;53.65
76794;BME280;65745;50.278;18.192;2023-04-30T08:49:53;100103.45;;;15.83;52.14
76794;BME280;65745;50.278;18.192;2023-04-30T08:52:27;100110.22;;;15.86;51.39
76794;BME280;65745;50.278;18.192;2023-04-30T08:55:01;100108.86;;;15.91;52.70
76794;BME280;65745;50.278;18.192;2023-04-30T08:57:36;100112.35;;;16.10;52.50
76794;BME280;65745;50.278;18.192;2023-04-30T09:00:10;100116.70;;;16.21;51.34
76794;BME280;65745;50.278;18.192;2023-04-30T09:02:43;100111.14;;;16.30;50.86
76794;BME280;65745;50.278;18.192;2023-04-30T09:05:16;100112.53;;;16.32;51.80
76794;BME280;65745;50.278;18.192;2023-04-30T09:07:48;100112.35;;;16.27;50.65
76794;BME280;65745;50.278;18.192;2023-04-30T09:10:34;100113.57;;;16.20;50.80
76794;BME280;65745;50.278;18.192;2023-04-30T09:13:07;100111.66;;;16.31;50.18
76794;BME280;65745;50.278;18.192;2023-04-30T09:15:41;100115.14;;;16.54;50.51
76794;BME280;65745;50.278;18.192;2023-04-30T09:18:17;100120.20;;;16.73;50.19
76794;BME280;65745;50.278;18.192;2023-04-30T09:20:56;100118.07;;;16.89;49.29
76794;BME280;65745;50.278;18.192;2023-04-30T09:23:30;100116.84;;;16.94;48.65
76794;BME280;65745;50.278;18.192;2023-04-30T09:26:02;100118.20;;;17.04;48.51
76794;BME280;65745;50.278;18.192;2023-04-30T09:28:35;100118.76;;;16.91;47.96
76794;BME280;65745;50.278;18.192;2023-04-30T09:31:19;100121.34;;;17.01;48.77
76794;BME280;65745;50.278;18.192;2023-04-30T09:33:52;100129.95;;;17.31;48.48
76794;BME280;65745;50.278;18.192;2023-04-30T09:36:24;100121.35;;;17.46;48.27
76794;BME280;65745;50.278;18.192;2023-04-30T09:39:06;100121.19;;;17.46;47.43
76794;BME280;65745;50.278;18.192;2023-04-30T09:41:42;100121.54;;;17.44;48.80
76794;BME280;65745;50.278;18.192;2023-04-30T09:44:35;100118.67;;;17.65;48.29
76794;BME280;65745;50.278;18.192;2023-04-30T09:47:11;100112.31;;;17.83;47.15
76794;BME280;65745;50.278;18.192;2023-04-30T09:49:45;100112.91;;;17.67;46.15
76794;BME280;65745;50.278;18.192;2023-04-30T09:52:22;100118.14;;;17.20;45.64
76794;BME280;65745;50.278;18.192;2023-04-30T09:54:54;100111.98;;;17.38;46.62
76794;BME280;65745;50.278;18.192;2023-04-30T09:57:27;100106.30;;;17.67;45.68
76794;BME280;65745;50.278;18.192;2023-04-30T10:00:01;100103.44;;;18.05;44.96
76794;BME280;65745;50.278;18.192;2023-04-30T10:02:39;100102.10;;;18.42;44.04
76794;BME280;65745;50.278;18.192;2023-04-30T10:05:12;100101.21;;;18.65;43.14
76794;BME280;65745;50.278;18.192;2023-04-30T10:07:44;100096.07;;;18.74;43.12
76794;BME280;65745;50.278;18.192;2023-04-30T10:10:17;100097.57;;;18.97;42.32
76794;BME280;65745;50.278;18.192;2023-04-30T10:12:52;100094.70;;;19.33;42.91
76794;BME280;65745;50.278;18.192;2023-04-30T10:15:27;100091.13;;;19.68;42.95
76794;BME280;65745;50.278;18.192;2023-04-30T10:18:01;100088.50;;;19.80;41.80
76794;BME280;65745;50.278;18.192;2023-04-30T10:20:36;100089.72;;;19.68;41.06
76794;BME280;65745;50.278;18.192;2023-04-30T10:23:09;100084.58;;;19.72;41.82
76794;BME280;65745;50.278;18.192;2023-04-30T10:25:42;100084.22;;;19.85;41.33
76794;BME280;65745;50.278;18.192;2023-04-30T10:28:16;100085.70;;;20.04;40.39
76794;BME280;65745;50.278;18.192;2023-04-30T10:30:48;100087.25;;;20.27;39.56
76794;BME280;65745;50.278;18.192;2023-04-30T10:33:40;100083.86;;;20.52;38.51
76794;BME280;65745;50.278;18.192;2023-04-30T10:36:25;100085.00;;;20.76;38.29
76794;BME280;65745;50.278;18.192;2023-04-30T10:39:02;100080.92;;;21.06;37.68
76794;BME280;65745;50.278;18.192;2023-04-30T10:41:35;100074.40;;;21.26;38.35
76794;BME280;65745;50.278;18.192;2023-04-30T10:44:08;100071.40;;;21.36;36.35
76794;BME280;65745;50.278;18.192;2023-04-30T10:46:40;100073.91;;;21.33;36.94
76794;BME280;65745;50.278;18.192;2023-04-30T10:49:13;100077.20;;;21.43;36.23
76794;BME280;65745;50.278;18.192;2023-04-30T10:51:51;100069.82;;;21.75;36.68
76794;BME280;65745;50.278;18.192;2023-04-30T10:54:26;100068.27;;;21.90;36.05
76794;BME280;65745;50.278;18.192;2023-04-30T10:57:12;100070.05;;;21.88;34.16
76794;BME280;65745;50.278;18.192;2023-04-30T10:59:50;100066.58;;;22.10;34.90
76794;BME280;65745;50.278;18.192;2023-04-30T11:02:23;100070.95;;;22.38;34.36
76794;BME280;65745;50.278;18.192;2023-04-30T11:05:14;100070.64;;;22.57;34.43
76794;BME280;65745;50.278;18.192;2023-04-30T11:07:49;100071.64;;;22.72;34.91
76794;BME280;65745;50.278;18.192;2023-04-30T11:10:24;100071.61;;;22.93;34.32
76794;BME280;65745;50.278;18.192;2023-04-30T11:12:56;100073.94;;;23.11;33.03
76794;BME280;65745;50.278;18.192;2023-04-30T11:15:35;100076.05;;;22.92;32.83
76794;BME280;65745;50.278;18.192;2023-04-30T11:18:10;100081.88;;;22.77;32.86
76794;BME280;65745;50.278;18.192;2023-04-30T11:20:49;100077.41;;;22.87;33.47
76794;BME280;65745;50.278;18.192;2023-04-30T11:23:25;100078.42;;;22.88;33.11
76794;BME280;65745;50.278;18.192;2023-04-30T11:26:08;100072.98;;;23.01;33.54
76794;BME280;65745;50.278;18.192;2023-04-30T11:28:50;100071.44;;;23.18;33.39
76794;BME280;65745;50.278;18.192;2023-04-30T11:31:33;100070.37;;;23.30;33.85
76794;BME280;65745;50.278;18.192;2023-04-30T11:34:06;100066.83;;;23.13;32.59
76794;BME280;65745;50.278;18.192;2023-04-30T11:36:41;100072.48;;;22.87;33.14
76794;BME280;65745;50.278;18.192;2023-04-30T11:39:16;100074.27;;;23.11;33.06
76794;BME280;65745;50.278;18.192;2023-04-30T11:41:49;100073.05;;;23.35;31.54
76794;BME280;65745;50.278;18.192;2023-04-30T11:44:26;100071.92;;;23.31;31.77
76794;BME280;65745;50.278;18.192;2023-04-30T11:46:59;100070.13;;;23.26;32.13
76794;BME280;65745;50.278;18.192;2023-04-30T11:49:32;100065.56;;;23.38;32.40
76794;BME280;65745;50.278;18.192;2023-04-30T11:52:04;100068.23;;;23.43;31.43
76794;BME280;65745;50.278;18.192;2023-04-30T11:54:38;100068.65;;;23.76;31.13
76794;BME280;65745;50.278;18.192;2023-04-30T11:57:11;100068.52;;;23.75;30.99
76794;BME280;65745;50.278;18.192;2023-04-30T11:59:43;100067.99;;;23.69;30.00
76794;BME280;65745;50.278;18.192;2023-04-30T12:02:16;100069.70;;;23.87;29.80
76794;BME280;65745;50.278;18.192;2023-04-30T12:04:49;100070.24;;;23.82;30.76
76794;BME280;65745;50.278;18.192;2023-04-30T12:07:22;100068.08;;;23.78;29.84
76794;BME280;65745;50.278;18.192;2023-04-30T12:09:54;100065.12;;;23.87;30.12
76794;BME280;65745;50.278;18.192;2023-04-30T12:12:31;100069.86;;;24.04;30.22
76794;BME280;65745;50.278;18.192;2023-04-30T12:15:07;100068.27;;;24.10;28.82
76794;BME280;65745;50.278;18.192;2023-04-30T12:17:41;100068.00;;;24.35;29.31
76794;BME280;65745;50.278;18.192;2023-04-30T12:20:14;100066.18;;;24.31;29.77
76794;BME280;65745;50.278;18.192;2023-04-30T12:22:49;100065.72;;;24.29;29.85
76794;BME280;65745;50.278;18.192;2023-04-30T12:25:21;100065.51;;;24.46;30.10
76794;BME280;65745;50.278;18.192;2023-04-30T12:27:54;100066.87;;;24.82;29.88
76794;BME280;65745;50.278;18.192;2023-04-30T12:30:27;100069.11;;;24.84;29.22
76794;BME280;65745;50.278;18.192;2023-04-30T12:33:00;100061.17;;;25.13;28.72
76794;BME280;65745;50.278;18.192;2023-04-30T12:35:34;100051.56;;;25.62;29.06
76794;BME280;65745;50.278;18.192;2023-04-30T12:38:06;100047.73;;;25.75;28.97
76794;BME280;65745;50.278;18.192;2023-04-30T12:40:39;100050.16;;;25.84;28.95
76794;BME280;65745;50.278;18.192;2023-04-30T12:43:15;100047.98;;;25.81;28.28
76794;BME280;65745;50.278;18.192;2023-04-30T12:45:49;100043.88;;;25.69;28.84
76794;BME280;65745;50.278;18.192;2023-04-30T12:48:24;100042.14;;;25.59;28.20
76794;BME280;65745;50.278;18.192;2023-04-30T12:50:59;100039.70;;;25.26;27.84
76794;BME280;65745;50.278;18.192;2023-04-30T12:53:32;100044.38;;;25.28;28.00
76794;BME280;65745;50.278;18.192;2023-04-30T12:56:12;100041.34;;;25.20;28.36
76794;BME280;65745;50.278;18.192;2023-04-30T12:58:47;100031.98;;;25.21;27.55
76794;BME280;65745;50.278;18.192;2023-04-30T13:01:21;100038.64;;;25.08;28.04
76794;BME280;65745;50.278;18.192;2023-04-30T13:03:55;100032.39;;;25.24;28.59
76794;BME280;65745;50.278;18.192;2023-04-30T13:06:28;100033.98;;;25.61;27.50
76794;BME280;65745;50.278;18.192;2023-04-30T13:09:00;100037.45;;;25.58;27.40
76794;BME280;65745;50.278;18.192;2023-04-30T13:11:34;100032.55;;;26.13;27.83
76794;BME280;65745;50.278;18.192;2023-04-30T13:14:06;100030.64;;;26.46;27.49
76794;BME280;65745;50.278;18.192;2023-04-30T13:16:40;100029.76;;;26.21;26.60
76794;BME280;65745;50.278;18.192;2023-04-30T13:19:12;100033.17;;;25.94;26.82
76794;BME280;65745;50.278;18.192;2023-04-30T13:21:44;100031.40;;;25.94;27.05